Flight Track Log - Related Links

Times and Time Zones

All times are in EST time to prevent confusion due to time zone crossing. See the N225SB flight status page for this flight to view local times or setup timezone preferences in your user account.

Time Position Orientation Groundspeed Altitude Reporting Facility
EST Latitude Longitude Course Direction KTS MPH feet Rate Location/Type
Sun 02:20:02 PM 25.0428 -77.3794 290° West 434 499 4,800  Level Miami Center
Sun 02:21:02 PM 25.1056 -77.3936 348° North 329 379 7,100 2,450 Climbing Miami Center
Sun 02:22:02 PM 25.1533 -77.4650 306° West 242 278 9,700 2,500 Climbing Miami Center
Sun 02:23:02 PM 25.1925 -77.5525 296° West 248 285 12,100 2,250 Climbing Miami Center
Sun 02:24:02 PM 25.2339 -77.6308 300° West 278 320 14,200 1,850 Climbing Miami Center
Sun 02:25:00 PM 25.5472 -77.8385 290° West  Level Estimated
Sun 02:25:02 PM 25.2836 -77.7069 306° West 296 341 15,800  Level Miami Center
Sun 02:26:02 PM 25.3564 -77.7650 324° Northwest 310 357 17,400 1,500 Climbing Miami Center
Sun 02:27:02 PM 25.4292 -77.8253 323° Northwest 316 364 18,800 1,400 Climbing Miami Center
Sun 02:28:02 PM 25.5042 -77.8833 325° Northwest 321 369 20,200 1,350 Climbing Miami Center
Sun 02:29:02 PM 25.5789 -77.9461 323° Northwest 327 376 21,500 1,300 Climbing Miami Center
Sun 02:30:02 PM 25.6536 -78.0069 324° Northwest 332 382 22,800 1,300 Climbing Miami Center
Sun 02:31:02 PM 25.7306 -78.0675 325° Northwest 338 389 24,100 1,267 Climbing Miami Center
Sun 02:33:02 PM 25.8800 -78.1914 323° Northwest 340 391 26,600 1,167 Climbing Miami Center
Sun 02:34:02 PM 25.9544 -78.2547 323° Northwest 340 391 27,600 1,000 Climbing Miami Center
Sun 02:35:02 PM 26.0292 -78.3181 323° Northwest 335 386 28,600 1,000 Climbing Miami Center
Sun 02:36:02 PM 26.1036 -78.3767 325° Northwest 335 386 29,600 1,000 Climbing Miami Center
Sun 02:37:02 PM 26.1783 -78.4378 324° Northwest 335 386 30,600 900 Climbing Miami Center
Sun 02:38:02 PM 26.2528 -78.4992 324° Northwest 335 386 31,400 900 Climbing Miami Center
Sun 02:39:02 PM 26.3253 -78.5603 323° Northwest 335 386 32,400 850 Climbing Miami Center
Sun 02:40:02 PM 26.3997 -78.6242 322° Northwest 335 386 33,100 600 Climbing Miami Center
Sun 02:41:02 PM 26.4700 -78.6761 327° Northwest 335 386 33,600 600 Climbing Miami Center
Sun 02:42:02 PM 26.5467 -78.7425 322° Northwest 345 397 34,300 650 Climbing Miami Center
Sun 02:43:02 PM 26.6211 -78.8039 324° Northwest 340 391 34,900 650 Climbing Miami Center
Sun 02:44:02 PM 26.6994 -78.8681 324° Northwest 340 391 35,600 650 Climbing Miami Center
Sun 02:45:02 PM 26.7800 -78.9347 324° Northwest 340 391 36,200 650 Climbing Miami Center
Sun 02:46:02 PM 26.8564 -79.0011 322° Northwest 347 399 36,900 400 Climbing Miami Center
Sun 02:47:02 PM 26.9408 -79.0703 324° Northwest 352 405 37,000 50 Climbing Miami Center
Sun 02:48:02 PM 27.0233 -79.1394 323° Northwest 365 420 37,000  Level Miami Center
Sun 02:49:02 PM 27.1183 -79.2206 323° Northwest 387 445 37,000  Level Miami Center
Sun 02:50:02 PM 27.2089 -79.2972 323° Northwest 398 458 37,000  Level Miami Center
Sun 02:51:02 PM 27.2933 -79.3692 323° Northwest 411 473 37,000  Level Miami Center
Sun 02:52:02 PM 27.3858 -79.4461 324° Northwest 411 473 37,000  Level Miami Center
Sun 02:53:02 PM 27.4886 -79.5325 323° Northwest 416 479 37,000  Level Miami Center
Sun 02:54:02 PM 27.5853 -79.6144 323° Northwest 423 487 37,000  Level Miami Center
Sun 02:55:02 PM 27.6717 -79.6869 323° Northwest 429 494 37,000  Level Miami Center
Sun 02:56:02 PM 27.7661 -79.7692 322° Northwest 429 494 37,000  Level Miami Center
Sun 02:57:02 PM 27.8583 -79.8489 323° Northwest 429 494 37,000  Level Miami Center
Sun 02:58:02 PM 27.9650 -79.9411 323° Northwest 435 501 37,000  Level Miami Center
Sun 02:59:02 PM 28.0592 -80.0261 321° Northwest 430 495 37,000  Level Miami Center
Sun 03:00:02 PM 28.1472 -80.0992 324° Northwest 430 495 37,000  Level Miami Center
Sun 03:01:02 PM 28.2433 -80.1844 322° Northwest 430 495 37,000  Level Miami Center
Sun 03:02:02 PM 28.3478 -80.2747 323° Northwest 430 495 37,000  Level Miami Center
Sun 03:04:29 PM 28.5736 -80.4697 323° Northwest 426 490 37,000  Level Jacksonville Center
Sun 03:05:29 PM 28.6797 -80.5617 323° Northwest 431 496 37,000  Level Jacksonville Center
Sun 03:06:29 PM 28.7750 -80.6472 322° Northwest 431 496 37,000  Level Jacksonville Center
Sun 03:07:29 PM 28.8703 -80.7256 324° Northwest 426 490 37,000  Level Jacksonville Center
Sun 03:08:29 PM 28.9819 -80.7872 334° Northwest 433 498 37,000  Level Jacksonville Center
Sun 03:09:29 PM 29.0936 -80.8467 335° Northwest 438 504 37,000  Level Jacksonville Center
Sun 03:10:29 PM 29.2053 -80.9086 334° Northwest 438 504 37,000  Level Jacksonville Center
Sun 03:11:29 PM 29.3125 -80.9658 335° Northwest 428 493 37,000  Level Jacksonville Center
Sun 03:12:29 PM 29.4200 -81.0281 333° Northwest 428 493 37,000  Level Jacksonville Center
Sun 03:13:29 PM 29.5253 -81.0883 334° Northwest 422 486 37,000  Level Jacksonville Center
Sun 03:14:29 PM 29.6344 -81.1483 334° Northwest 422 486 37,000  Level Jacksonville Center
Sun 03:15:29 PM 29.7419 -81.2086 334° Northwest 422 486 37,000  Level Jacksonville Center
Sun 03:16:29 PM 29.8492 -81.2689 334° Northwest 427 491 37,000  Level Jacksonville Center
Sun 03:17:29 PM 29.9564 -81.3294 334° Northwest 427 491 37,000  Level Jacksonville Center
Sun 03:18:29 PM 30.0656 -81.3878 335° Northwest 427 491 37,000  Level Jacksonville Center
Sun 03:19:29 PM 30.1728 -81.4486 334° Northwest 427 491 37,000  Level Jacksonville Center
Sun 03:20:30 PM 30.2797 -81.5047 336° Northwest 427 491 37,000  Level Jacksonville Center
Sun 03:21:29 PM 30.3892 -81.5656 334° Northwest 427 491 37,000  Level Jacksonville Center
Sun 03:22:29 PM 30.4961 -81.6269 334° Northwest 427 491 37,000  Level Jacksonville Center
Sun 03:23:29 PM 30.6033 -81.6906 333° Northwest 427 491 37,000  Level Jacksonville Center
Sun 03:24:29 PM 30.7083 -81.7497 334° Northwest 427 491 37,000  Level Jacksonville Center
Sun 03:25:29 PM 30.8047 -81.8067 333° Northwest 427 491 37,000  Level Jacksonville Center
Sun 03:26:29 PM 30.9097 -81.8683 333° Northwest 427 491 37,000  Level Jacksonville Center
Sun 03:27:29 PM 31.0144 -81.9278 334° Northwest 427 491 37,000  Level Jacksonville Center
Sun 03:28:29 PM 31.1172 -81.9875 334° Northwest 427 491 37,000  Level Jacksonville Center
Sun 03:29:29 PM 31.2200 -82.0447 335° Northwest 422 486 37,000  Level Jacksonville Center
Sun 03:30:29 PM 31.3392 -82.0753 348° North 417 480 37,000  Level Jacksonville Center
Sun 03:31:29 PM 31.4561 -82.0961 351° North 423 487 37,000  Level Jacksonville Center
Sun 03:32:29 PM 31.5733 -82.1219 349° North 423 487 37,000 -600 Level Jacksonville Center
Sun 03:33:29 PM 31.7031 -82.1478 350° North 428 493 35,800 -1,650 Descending Jacksonville Center
Sun 03:34:29 PM 31.8075 -82.1689 350° North 428 493 33,700 -2,082 Descending Jacksonville Center
Sun 03:36:45 PM 32.0431 -82.2942 336° Northwest 402 463 29,000 -1,439 Descending Atlanta Center
Sun 03:37:45 PM 32.1300 -82.3833 319° Northwest 402 463 29,000 -300 Level Atlanta Center
Sun 03:39:00 PM 32.2271 -82.4831 319° Northwest  Level FlightAware Approximate
Sun 03:39:45 PM 32.2992 -82.5547 319° Northwest 407 468 28,100  Level Atlanta Center
Sun 03:40:45 PM 32.3922 -82.6539 318° Northwest 422 486 26,400 -1,650 Descending Atlanta Center
Sun 03:41:45 PM 32.4828 -82.7461 319° Northwest 427 491 24,800 -1,650 Descending Atlanta Center
Sun 03:42:45 PM 32.5694 -82.8386 318° Northwest 421 484 23,100 -1,400 Descending Atlanta Center
Sun 03:43:45 PM 32.6558 -82.9261 320° Northwest 421 484 22,000 -550 Descending Atlanta Center
Sun 03:44:45 PM 32.7464 -83.0164 320° Northwest 421 484 22,000 -150 Level Atlanta Center
Sun 03:45:45 PM 32.8325 -83.1044 319° Northwest 415 478 21,700 -950 Descending Atlanta Center
Sun 03:46:45 PM 32.9167 -83.1875 320° Northwest 410 472 20,100 -1,550 Descending Atlanta Center
Sun 03:47:45 PM 33.0028 -83.2733 320° Northwest 404 465 18,600 -1,450 Descending Atlanta Center
Sun 03:48:45 PM 33.0911 -83.3644 319° Northwest 393 452 17,200 -1,350 Descending Atlanta Center
Sun 03:49:45 PM 33.1708 -83.4433 320° Northwest 379 436 15,900 3,400 Descending Atlanta Center
Sun 03:50:45 PM 33.2464 -83.5247 318° Northwest 372 428 24,000 -1,850 Climbing Atlanta Center
Sun 03:51:45 PM 33.3258 -83.6039 320° Northwest 367 422 12,200 -6,500 Descending Atlanta Center
Sun 03:52:45 PM 33.3992 -83.6731 322° Northwest 351 404 11,000 -650 Descending Atlanta Center
Sun 03:53:45 PM 33.4661 -83.7325 323° Northwest 319 367 10,900 -500 Descending Atlanta Center
Sun 03:54:45 PM 33.5372 -83.7747 334° Northwest 290 334 10,000 -1,150 Descending Atlanta Center
Sun 03:55:45 PM 33.6000 -83.8119 334° Northwest 284 327 8,600 -1,550 Descending Atlanta Center
Sun 03:56:45 PM 33.6689 -83.8542 333° Northwest 277 319 6,900 -1,300 Descending Atlanta Center
Sun 03:57:45 PM 33.7358 -83.8964 332° Northwest 277 319 6,000 -450 Descending Atlanta Center
Sun 03:58:45 PM 33.8025 -83.9339 335° Northwest 266 306 6,000  Level Atlanta Center
Sun 03:59:45 PM 33.8528 -83.9889 318° Northwest 259 298 6,000  Level Atlanta Center
Sun 04:01:08 PM 33.8667 -84.1333 277° West 275 316 6,000 -435 Level Atlanta TRACON
Sun 04:02:03 PM 33.8500 -84.2000 253° West 287 330 5,000 -545 Descending Atlanta TRACON
Sun 04:03:09 PM 33.8167 -84.3000 248° West 230 265 4,900 -381 Descending Atlanta TRACON
Sun 04:04:09 PM 33.8000 -84.3500 248° West 211 243 4,200 -1,000 Descending Atlanta TRACON
Sun 04:05:09 PM 33.8000 -84.4167 270° West 187 215 2,900 -1,263 Descending Atlanta TRACON
Sun 04:06:03 PM 33.7833 -84.4833 253° West 164 189 1,800 -1,222 Descending Atlanta TRACON
Sun 04:08:00 PM 33.7667 -84.5167 231° Southwest  Level FlightAware Approximate
Sun 04:15:00 PM 33.7791 -84.5214 231° Southwest  Level Estimated

Login

Don't have an account? Register now (free) for customized features, flight alerts, and more!